sensor_id;sensor_type;location;lat;lon;timestamp;P1;durP1;ratioP1;P2;durP2;ratioP2
32964;SDS011;19317;48.226;11.686;2023-03-19T00:00:53;8.97;;;5.67;;
32964;SDS011;19317;48.226;11.686;2023-03-19T00:05:50;8.10;;;6.00;;
32964;SDS011;19317;48.226;11.686;2023-03-19T00:10:42;11.17;;;6.27;;
32964;SDS011;19317;48.226;11.686;2023-03-19T00:15:32;15.70;;;10.03;;
32964;SDS011;19317;48.226;11.686;2023-03-19T00:20:23;12.43;;;8.03;;
32964;SDS011;19317;48.226;11.686;2023-03-19T00:25:13;13.70;;;9.00;;
32964;SDS011;19317;48.226;11.686;2023-03-19T00:30:06;9.37;;;7.47;;
32964;SDS011;19317;48.226;11.686;2023-03-19T00:34:57;9.33;;;7.60;;
32964;SDS011;19317;48.226;11.686;2023-03-19T00:39:48;9.13;;;7.17;;
32964;SDS011;19317;48.226;11.686;2023-03-19T00:44:38;10.57;;;7.70;;
32964;SDS011;19317;48.226;11.686;2023-03-19T00:49:29;9.73;;;7.57;;
32964;SDS011;19317;48.226;11.686;2023-03-19T00:54:19;10.77;;;7.77;;
32964;SDS011;19317;48.226;11.686;2023-03-19T00:59:10;11.07;;;7.23;;
32964;SDS011;19317;48.226;11.686;2023-03-19T01:04:00;10.13;;;7.43;;
32964;SDS011;19317;48.226;11.686;2023-03-19T01:08:51;9.57;;;7.07;;
32964;SDS011;19317;48.226;11.686;2023-03-19T01:13:41;8.73;;;6.80;;
32964;SDS011;19317;48.226;11.686;2023-03-19T01:18:32;10.63;;;6.83;;
32964;SDS011;19317;48.226;11.686;2023-03-19T01:23:22;8.63;;;6.43;;
32964;SDS011;19317;48.226;11.686;2023-03-19T01:28:13;10.30;;;6.77;;
32964;SDS011;19317;48.226;11.686;2023-03-19T01:33:04;8.70;;;6.30;;
32964;SDS011;19317;48.226;11.686;2023-03-19T01:37:54;8.37;;;6.13;;
32964;SDS011;19317;48.226;11.686;2023-03-19T01:42:55;9.13;;;6.13;;
32964;SDS011;19317;48.226;11.686;2023-03-19T01:48:01;7.90;;;5.63;;
32964;SDS011;19317;48.226;11.686;2023-03-19T01:52:53;7.90;;;6.20;;
32964;SDS011;19317;48.226;11.686;2023-03-19T01:57:44;9.33;;;6.53;;
32964;SDS011;19317;48.226;11.686;2023-03-19T02:02:34;8.10;;;6.23;;
32964;SDS011;19317;48.226;11.686;2023-03-19T02:07:31;8.27;;;5.73;;
32964;SDS011;19317;48.226;11.686;2023-03-19T02:12:23;9.73;;;6.23;;
32964;SDS011;19317;48.226;11.686;2023-03-19T02:17:13;8.20;;;6.17;;
32964;SDS011;19317;48.226;11.686;2023-03-19T02:22:04;7.30;;;5.77;;
32964;SDS011;19317;48.226;11.686;2023-03-19T02:26:55;8.10;;;6.00;;
32964;SDS011;19317;48.226;11.686;2023-03-19T02:31:47;8.80;;;6.43;;
32964;SDS011;19317;48.226;11.686;2023-03-19T02:36:38;10.43;;;6.80;;
32964;SDS011;19317;48.226;11.686;2023-03-19T02:41:31;7.90;;;6.67;;
32964;SDS011;19317;48.226;11.686;2023-03-19T02:46:23;10.83;;;6.13;;
32964;SDS011;19317;48.226;11.686;2023-03-19T02:51:13;10.40;;;6.37;;
32964;SDS011;19317;48.226;11.686;2023-03-19T02:56:04;10.07;;;6.50;;
32964;SDS011;19317;48.226;11.686;2023-03-19T03:00:54;10.43;;;6.43;;
32964;SDS011;19317;48.226;11.686;2023-03-19T03:05:45;7.77;;;5.63;;
32964;SDS011;19317;48.226;11.686;2023-03-19T03:10:35;8.57;;;5.90;;
32964;SDS011;19317;48.226;11.686;2023-03-19T03:15:26;7.70;;;6.43;;
32964;SDS011;19317;48.226;11.686;2023-03-19T03:20:16;7.37;;;6.10;;
32964;SDS011;19317;48.226;11.686;2023-03-19T03:25:07;11.20;;;6.13;;
32964;SDS011;19317;48.226;11.686;2023-03-19T03:29:58;11.00;;;6.60;;
32964;SDS011;19317;48.226;11.686;2023-03-19T03:34:48;9.30;;;6.47;;
32964;SDS011;19317;48.226;11.686;2023-03-19T03:39:39;9.43;;;6.60;;
32964;SDS011;19317;48.226;11.686;2023-03-19T03:44:29;12.10;;;6.73;;
32964;SDS011;19317;48.226;11.686;2023-03-19T03:49:20;9.13;;;6.70;;
32964;SDS011;19317;48.226;11.686;2023-03-19T03:54:10;8.80;;;6.43;;
32964;SDS011;19317;48.226;11.686;2023-03-19T03:59:01;7.10;;;6.37;;
32964;SDS011;19317;48.226;11.686;2023-03-19T04:03:52;7.70;;;5.87;;
32964;SDS011;19317;48.226;11.686;2023-03-19T04:08:42;8.77;;;6.00;;
32964;SDS011;19317;48.226;11.686;2023-03-19T04:13:33;10.00;;;6.10;;
32964;SDS011;19317;48.226;11.686;2023-03-19T04:18:24;8.03;;;6.30;;
32964;SDS011;19317;48.226;11.686;2023-03-19T04:23:14;7.47;;;6.43;;
32964;SDS011;19317;48.226;11.686;2023-03-19T04:28:05;11.20;;;6.30;;
32964;SDS011;19317;48.226;11.686;2023-03-19T04:32:55;8.50;;;6.10;;
32964;SDS011;19317;48.226;11.686;2023-03-19T04:37:46;8.50;;;6.50;;
32964;SDS011;19317;48.226;11.686;2023-03-19T04:42:36;8.63;;;6.00;;
32964;SDS011;19317;48.226;11.686;2023-03-19T04:47:26;7.03;;;5.97;;
32964;SDS011;19317;48.226;11.686;2023-03-19T04:52:17;7.47;;;5.63;;
32964;SDS011;19317;48.226;11.686;2023-03-19T04:57:07;7.57;;;5.77;;
32964;SDS011;19317;48.226;11.686;2023-03-19T05:01:58;8.93;;;5.80;;
32964;SDS011;19317;48.226;11.686;2023-03-19T05:06:48;8.93;;;5.90;;
32964;SDS011;19317;48.226;11.686;2023-03-19T05:11:39;6.73;;;5.47;;
32964;SDS011;19317;48.226;11.686;2023-03-19T05:16:29;8.30;;;5.80;;
32964;SDS011;19317;48.226;11.686;2023-03-19T05:21:20;6.67;;;5.53;;
32964;SDS011;19317;48.226;11.686;2023-03-19T05:26:10;5.77;;;5.27;;
32964;SDS011;19317;48.226;11.686;2023-03-19T05:31:02;6.00;;;4.93;;
32964;SDS011;19317;48.226;11.686;2023-03-19T05:35:53;7.57;;;5.03;;
32964;SDS011;19317;48.226;11.686;2023-03-19T05:40:43;6.90;;;4.83;;
32964;SDS011;19317;48.226;11.686;2023-03-19T05:45:34;8.37;;;5.13;;
32964;SDS011;19317;48.226;11.686;2023-03-19T05:50:24;6.63;;;4.87;;
32964;SDS011;19317;48.226;11.686;2023-03-19T05:55:15;6.17;;;4.63;;
32964;SDS011;19317;48.226;11.686;2023-03-19T06:00:06;5.60;;;4.83;;
32964;SDS011;19317;48.226;11.686;2023-03-19T06:04:57;6.57;;;5.07;;
32964;SDS011;19317;48.226;11.686;2023-03-19T06:09:47;7.53;;;5.57;;
32964;SDS011;19317;48.226;11.686;2023-03-19T06:14:38;8.53;;;5.37;;
32964;SDS011;19317;48.226;11.686;2023-03-19T06:19:28;6.60;;;4.87;;
32964;SDS011;19317;48.226;11.686;2023-03-19T06:24:19;8.97;;;5.40;;
32964;SDS011;19317;48.226;11.686;2023-03-19T06:29:09;6.80;;;5.70;;
32964;SDS011;19317;48.226;11.686;2023-03-19T06:34:00;6.00;;;4.93;;
32964;SDS011;19317;48.226;11.686;2023-03-19T06:38:50;8.23;;;5.90;;
32964;SDS011;19317;48.226;11.686;2023-03-19T06:43:41;7.03;;;6.00;;
32964;SDS011;19317;48.226;11.686;2023-03-19T06:48:31;7.03;;;5.80;;
32964;SDS011;19317;48.226;11.686;2023-03-19T06:53:22;8.20;;;6.30;;
32964;SDS011;19317;48.226;11.686;2023-03-19T06:58:13;6.80;;;6.10;;
32964;SDS011;19317;48.226;11.686;2023-03-19T07:03:03;6.93;;;6.23;;
32964;SDS011;19317;48.226;11.686;2023-03-19T07:07:54;8.33;;;6.10;;
32964;SDS011;19317;48.226;11.686;2023-03-19T07:12:45;6.20;;;5.60;;
32964;SDS011;19317;48.226;11.686;2023-03-19T07:17:35;8.20;;;6.00;;
32964;SDS011;19317;48.226;11.686;2023-03-19T07:22:26;8.13;;;6.33;;
32964;SDS011;19317;48.226;11.686;2023-03-19T07:29:17;9.27;;;5.97;;
32964;SDS011;19317;48.226;11.686;2023-03-19T07:34:08;7.30;;;5.80;;
32964;SDS011;19317;48.226;11.686;2023-03-19T07:38:58;8.97;;;5.80;;
32964;SDS011;19317;48.226;11.686;2023-03-19T07:43:49;8.33;;;6.13;;
32964;SDS011;19317;48.226;11.686;2023-03-19T07:48:39;10.20;;;6.07;;
32964;SDS011;19317;48.226;11.686;2023-03-19T07:53:30;7.20;;;5.60;;
32964;SDS011;19317;48.226;11.686;2023-03-19T07:58:20;6.83;;;5.73;;
32964;SDS011;19317;48.226;11.686;2023-03-19T08:03:11;7.40;;;5.60;;
32964;SDS011;19317;48.226;11.686;2023-03-19T08:08:01;7.93;;;5.60;;
32964;SDS011;19317;48.226;11.686;2023-03-19T08:12:52;5.53;;;5.00;;
32964;SDS011;19317;48.226;11.686;2023-03-19T08:17:42;8.00;;;4.87;;
32964;SDS011;19317;48.226;11.686;2023-03-19T08:22:34;6.30;;;5.13;;
32964;SDS011;19317;48.226;11.686;2023-03-19T08:27:25;6.00;;;4.83;;
32964;SDS011;19317;48.226;11.686;2023-03-19T08:32:15;4.83;;;4.33;;
32964;SDS011;19317;48.226;11.686;2023-03-19T08:37:06;7.47;;;4.53;;
32964;SDS011;19317;48.226;11.686;2023-03-19T08:41:57;8.07;;;4.40;;
32964;SDS011;19317;48.226;11.686;2023-03-19T08:46:47;4.90;;;4.20;;
32964;SDS011;19317;48.226;11.686;2023-03-19T08:51:37;4.63;;;3.90;;
32964;SDS011;19317;48.226;11.686;2023-03-19T08:56:28;4.87;;;4.10;;
32964;SDS011;19317;48.226;11.686;2023-03-19T09:01:18;4.40;;;4.00;;
32964;SDS011;19317;48.226;11.686;2023-03-19T09:06:10;6.77;;;4.20;;
32964;SDS011;19317;48.226;11.686;2023-03-19T09:11:02;5.03;;;3.80;;
32964;SDS011;19317;48.226;11.686;2023-03-19T09:15:53;3.83;;;3.47;;
32964;SDS011;19317;48.226;11.686;2023-03-19T09:20:44;4.20;;;3.80;;
32964;SDS011;19317;48.226;11.686;2023-03-19T09:25:35;5.03;;;3.87;;
32964;SDS011;19317;48.226;11.686;2023-03-19T09:30:25;4.40;;;4.00;;
32964;SDS011;19317;48.226;11.686;2023-03-19T09:35:16;5.13;;;4.10;;
32964;SDS011;19317;48.226;11.686;2023-03-19T09:40:08;4.77;;;4.27;;
32964;SDS011;19317;48.226;11.686;2023-03-19T09:45:30;5.97;;;3.70;;
32964;SDS011;19317;48.226;11.686;2023-03-19T09:50:22;5.47;;;3.90;;
32964;SDS011;19317;48.226;11.686;2023-03-19T10:00:21;4.00;;;3.60;;
32964;SDS011;19317;48.226;11.686;2023-03-19T10:15:44;4.37;;;3.97;;
32964;SDS011;19317;48.226;11.686;2023-03-19T10:25:36;4.37;;;3.97;;
32964;SDS011;19317;48.226;11.686;2023-03-19T10:30:29;4.27;;;3.87;;
32964;SDS011;19317;48.226;11.686;2023-03-19T10:35:35;4.83;;;3.53;;
32964;SDS011;19317;48.226;11.686;2023-03-19T10:40:35;4.10;;;3.70;;
32964;SDS011;19317;48.226;11.686;2023-03-19T10:45:34;4.17;;;3.57;;
32964;SDS011;19317;48.226;11.686;2023-03-19T10:55:52;4.67;;;3.50;;
32964;SDS011;19317;48.226;11.686;2023-03-19T11:00:45;3.80;;;3.33;;
32964;SDS011;19317;48.226;11.686;2023-03-19T11:05:37;4.40;;;3.47;;
32964;SDS011;19317;48.226;11.686;2023-03-19T11:10:29;3.77;;;3.37;;
32964;SDS011;19317;48.226;11.686;2023-03-19T11:15:22;3.00;;;2.70;;
32964;SDS011;19317;48.226;11.686;2023-03-19T11:20:26;3.63;;;3.30;;
32964;SDS011;19317;48.226;11.686;2023-03-19T11:25:18;3.40;;;3.10;;
32964;SDS011;19317;48.226;11.686;2023-03-19T11:30:13;5.10;;;3.30;;
32964;SDS011;19317;48.226;11.686;2023-03-19T11:35:09;3.03;;;2.77;;
32964;SDS011;19317;48.226;11.686;2023-03-19T11:50:34;3.20;;;2.90;;
32964;SDS011;19317;48.226;11.686;2023-03-19T12:32:12;3.07;;;2.63;;
32964;SDS011;19317;48.226;11.686;2023-03-19T12:37:17;2.80;;;2.60;;
32964;SDS011;19317;48.226;11.686;2023-03-19T12:42:20;2.70;;;2.50;;
32964;SDS011;19317;48.226;11.686;2023-03-19T12:47:17;3.03;;;2.50;;
32964;SDS011;19317;48.226;11.686;2023-03-19T12:52:22;2.70;;;2.50;;
32964;SDS011;19317;48.226;11.686;2023-03-19T12:57:15;2.93;;;2.67;;
32964;SDS011;19317;48.226;11.686;2023-03-19T13:07:32;3.30;;;3.00;;
32964;SDS011;19317;48.226;11.686;2023-03-19T13:12:34;2.90;;;2.70;;
32964;SDS011;19317;48.226;11.686;2023-03-19T13:17:30;3.03;;;2.73;;
32964;SDS011;19317;48.226;11.686;2023-03-19T13:22:33;3.20;;;2.80;;
32964;SDS011;19317;48.226;11.686;2023-03-19T13:27:30;2.90;;;2.60;;
32964;SDS011;19317;48.226;11.686;2023-03-19T13:32:29;3.13;;;2.90;;
32964;SDS011;19317;48.226;11.686;2023-03-19T13:37:26;3.00;;;2.70;;
32964;SDS011;19317;48.226;11.686;2023-03-19T13:42:22;4.80;;;3.10;;
32964;SDS011;19317;48.226;11.686;2023-03-19T14:17:20;4.60;;;3.00;;
32964;SDS011;19317;48.226;11.686;2023-03-19T14:22:30;7.73;;;6.00;;
32964;SDS011;19317;48.226;11.686;2023-03-19T14:27:31;3.50;;;2.90;;
32964;SDS011;19317;48.226;11.686;2023-03-19T14:32:27;4.30;;;2.80;;
32964;SDS011;19317;48.226;11.686;2023-03-19T14:37:24;3.67;;;2.80;;
32964;SDS011;19317;48.226;11.686;2023-03-19T14:43:02;3.00;;;2.70;;
32964;SDS011;19317;48.226;11.686;2023-03-19T14:52:50;5.13;;;3.00;;
32964;SDS011;19317;48.226;11.686;2023-03-19T14:58:02;3.30;;;2.90;;
32964;SDS011;19317;48.226;11.686;2023-03-19T15:02:54;3.27;;;2.97;;
32964;SDS011;19317;48.226;11.686;2023-03-19T15:07:46;3.53;;;3.23;;
32964;SDS011;19317;48.226;11.686;2023-03-19T15:13:00;3.30;;;3.00;;
32964;SDS011;19317;48.226;11.686;2023-03-19T15:18:13;3.30;;;3.00;;
32964;SDS011;19317;48.226;11.686;2023-03-19T15:23:05;3.37;;;3.07;;
32964;SDS011;19317;48.226;11.686;2023-03-19T15:28:09;3.30;;;3.00;;
32964;SDS011;19317;48.226;11.686;2023-03-19T15:33:15;3.40;;;3.10;;
32964;SDS011;19317;48.226;11.686;2023-03-19T15:38:10;3.40;;;3.10;;
32964;SDS011;19317;48.226;11.686;2023-03-19T15:43:04;4.23;;;3.20;;
32964;SDS011;19317;48.226;11.686;2023-03-19T15:48:06;3.40;;;3.10;;
32964;SDS011;19317;48.226;11.686;2023-03-19T15:52:58;2.80;;;2.60;;
32964;SDS011;19317;48.226;11.686;2023-03-19T15:57:53;3.23;;;2.97;;
32964;SDS011;19317;48.226;11.686;2023-03-19T16:02:46;3.37;;;3.07;;
32964;SDS011;19317;48.226;11.686;2023-03-19T16:07:42;3.20;;;2.90;;
32964;SDS011;19317;48.226;11.686;2023-03-19T16:12:35;4.20;;;3.00;;
32964;SDS011;19317;48.226;11.686;2023-03-19T16:17:33;3.47;;;3.17;;
32964;SDS011;19317;48.226;11.686;2023-03-19T16:22:26;3.53;;;3.00;;
32964;SDS011;19317;48.226;11.686;2023-03-19T16:27:19;3.40;;;3.10;;
32964;SDS011;19317;48.226;11.686;2023-03-19T16:47:21;2.80;;;2.60;;
32964;SDS011;19317;48.226;11.686;2023-03-19T16:52:13;3.70;;;2.80;;
32964;SDS011;19317;48.226;11.686;2023-03-19T16:57:13;3.63;;;2.87;;
32964;SDS011;19317;48.226;11.686;2023-03-19T17:02:12;3.17;;;2.97;;
32964;SDS011;19317;48.226;11.686;2023-03-19T17:07:04;3.00;;;2.80;;
32964;SDS011;19317;48.226;11.686;2023-03-19T17:11:55;3.57;;;2.93;;
32964;SDS011;19317;48.226;11.686;2023-03-19T17:16:46;3.80;;;3.03;;
32964;SDS011;19317;48.226;11.686;2023-03-19T17:21:37;5.77;;;4.40;;
32964;SDS011;19317;48.226;11.686;2023-03-19T17:26:28;5.60;;;3.10;;
32964;SDS011;19317;48.226;11.686;2023-03-19T17:31:22;3.53;;;3.23;;
32964;SDS011;19317;48.226;11.686;2023-03-19T17:36:15;4.17;;;3.27;;
32964;SDS011;19317;48.226;11.686;2023-03-19T17:41:15;6.20;;;4.07;;
32964;SDS011;19317;48.226;11.686;2023-03-19T17:46:08;6.97;;;6.30;;
32964;SDS011;19317;48.226;11.686;2023-03-19T17:51:07;3.93;;;3.20;;
32964;SDS011;19317;48.226;11.686;2023-03-19T17:55:58;3.67;;;2.70;;
32964;SDS011;19317;48.226;11.686;2023-03-19T18:00:49;4.73;;;3.00;;
32964;SDS011;19317;48.226;11.686;2023-03-19T18:05:41;3.30;;;3.00;;
32964;SDS011;19317;48.226;11.686;2023-03-19T18:10:32;4.17;;;3.10;;
32964;SDS011;19317;48.226;11.686;2023-03-19T18:15:22;5.50;;;3.47;;
32964;SDS011;19317;48.226;11.686;2023-03-19T18:20:14;3.30;;;3.00;;
32964;SDS011;19317;48.226;11.686;2023-03-19T18:25:17;3.50;;;3.20;;
32964;SDS011;19317;48.226;11.686;2023-03-19T18:30:09;11.97;;;9.80;;
32964;SDS011;19317;48.226;11.686;2023-03-19T18:35:02;7.17;;;5.30;;
32964;SDS011;19317;48.226;11.686;2023-03-19T18:39:52;4.30;;;3.90;;
32964;SDS011;19317;48.226;11.686;2023-03-19T18:44:43;3.43;;;3.07;;
32964;SDS011;19317;48.226;11.686;2023-03-19T18:49:33;5.47;;;3.20;;
32964;SDS011;19317;48.226;11.686;2023-03-19T18:54:24;3.50;;;3.20;;
32964;SDS011;19317;48.226;11.686;2023-03-19T18:59:30;3.43;;;3.13;;
32964;SDS011;19317;48.226;11.686;2023-03-19T19:04:22;4.60;;;3.60;;
32964;SDS011;19317;48.226;11.686;2023-03-19T19:09:12;5.23;;;4.10;;
32964;SDS011;19317;48.226;11.686;2023-03-19T19:14:03;5.40;;;4.90;;
32964;SDS011;19317;48.226;11.686;2023-03-19T19:18:55;4.90;;;3.80;;
32964;SDS011;19317;48.226;11.686;2023-03-19T19:23:45;4.43;;;3.87;;
32964;SDS011;19317;48.226;11.686;2023-03-19T19:28:36;4.87;;;4.00;;
32964;SDS011;19317;48.226;11.686;2023-03-19T19:33:29;7.93;;;4.10;;
32964;SDS011;19317;48.226;11.686;2023-03-19T19:38:24;4.83;;;3.97;;
32964;SDS011;19317;48.226;11.686;2023-03-19T19:43:16;21.70;;;14.87;;
32964;SDS011;19317;48.226;11.686;2023-03-19T19:48:16;10.00;;;6.17;;
32964;SDS011;19317;48.226;11.686;2023-03-19T19:53:09;6.40;;;4.87;;
32964;SDS011;19317;48.226;11.686;2023-03-19T19:57:59;5.57;;;4.47;;
32964;SDS011;19317;48.226;11.686;2023-03-19T20:02:51;7.73;;;5.70;;
32964;SDS011;19317;48.226;11.686;2023-03-19T20:07:42;6.77;;;4.50;;
32964;SDS011;19317;48.226;11.686;2023-03-19T20:12:33;5.90;;;4.10;;
32964;SDS011;19317;48.226;11.686;2023-03-19T20:17:23;6.17;;;4.47;;
32964;SDS011;19317;48.226;11.686;2023-03-19T20:22:14;6.17;;;4.63;;
32964;SDS011;19317;48.226;11.686;2023-03-19T20:27:06;5.83;;;4.90;;
32964;SDS011;19317;48.226;11.686;2023-03-19T20:32:12;5.13;;;4.63;;
32964;SDS011;19317;48.226;11.686;2023-03-19T20:37:15;5.00;;;4.60;;
32964;SDS011;19317;48.226;11.686;2023-03-19T20:42:07;7.77;;;6.30;;
32964;SDS011;19317;48.226;11.686;2023-03-19T20:47:02;8.77;;;6.67;;
32964;SDS011;19317;48.226;11.686;2023-03-19T20:51:52;5.40;;;4.90;;
32964;SDS011;19317;48.226;11.686;2023-03-19T20:56:43;4.70;;;4.30;;
32964;SDS011;19317;48.226;11.686;2023-03-19T21:01:33;5.90;;;4.43;;
32964;SDS011;19317;48.226;11.686;2023-03-19T21:06:23;4.53;;;4.20;;
32964;SDS011;19317;48.226;11.686;2023-03-19T21:11:15;5.10;;;4.57;;
32964;SDS011;19317;48.226;11.686;2023-03-19T21:16:16;5.67;;;4.30;;
32964;SDS011;19317;48.226;11.686;2023-03-19T21:21:08;5.70;;;4.80;;
32964;SDS011;19317;48.226;11.686;2023-03-19T21:26:05;4.50;;;4.10;;
32964;SDS011;19317;48.226;11.686;2023-03-19T21:31:09;6.47;;;4.60;;
32964;SDS011;19317;48.226;11.686;2023-03-19T21:36:05;5.20;;;4.43;;
32964;SDS011;19317;48.226;11.686;2023-03-19T21:40:59;4.70;;;4.20;;
32964;SDS011;19317;48.226;11.686;2023-03-19T21:45:52;4.13;;;3.73;;
32964;SDS011;19317;48.226;11.686;2023-03-19T21:50:43;4.00;;;3.60;;
32964;SDS011;19317;48.226;11.686;2023-03-19T21:55:33;4.40;;;4.00;;
32964;SDS011;19317;48.226;11.686;2023-03-19T22:00:24;6.57;;;4.37;;
32964;SDS011;19317;48.226;11.686;2023-03-19T22:05:15;4.57;;;3.97;;
32964;SDS011;19317;48.226;11.686;2023-03-19T22:10:08;4.80;;;4.40;;
32964;SDS011;19317;48.226;11.686;2023-03-19T22:14:58;5.60;;;4.20;;
32964;SDS011;19317;48.226;11.686;2023-03-19T22:19:49;5.00;;;4.50;;
32964;SDS011;19317;48.226;11.686;2023-03-19T22:24:39;4.87;;;4.47;;
32964;SDS011;19317;48.226;11.686;2023-03-19T22:29:30;6.50;;;4.70;;
32964;SDS011;19317;48.226;11.686;2023-03-19T22:34:23;5.47;;;4.07;;
32964;SDS011;19317;48.226;11.686;2023-03-19T22:39:15;4.90;;;4.40;;
32964;SDS011;19317;48.226;11.686;2023-03-19T22:44:06;4.60;;;4.20;;
32964;SDS011;19317;48.226;11.686;2023-03-19T22:49:04;4.40;;;4.00;;
32964;SDS011;19317;48.226;11.686;2023-03-19T22:53:55;4.20;;;3.90;;
32964;SDS011;19317;48.226;11.686;2023-03-19T22:58:45;4.37;;;3.90;;
32964;SDS011;19317;48.226;11.686;2023-03-19T23:03:36;4.53;;;4.10;;
32964;SDS011;19317;48.226;11.686;2023-03-19T23:08:26;4.90;;;4.07;;
32964;SDS011;19317;48.226;11.686;2023-03-19T23:13:18;3.70;;;3.40;;
32964;SDS011;19317;48.226;11.686;2023-03-19T23:18:14;4.03;;;3.57;;
32964;SDS011;19317;48.226;11.686;2023-03-19T23:23:09;4.43;;;4.00;;
32964;SDS011;19317;48.226;11.686;2023-03-19T23:28:01;4.43;;;3.83;;
32964;SDS011;19317;48.226;11.686;2023-03-19T23:32:52;4.23;;;3.83;;
32964;SDS011;19317;48.226;11.686;2023-03-19T23:37:44;4.90;;;4.27;;
32964;SDS011;19317;48.226;11.686;2023-03-19T23:42:34;5.57;;;4.27;;
32964;SDS011;19317;48.226;11.686;2023-03-19T23:47:25;5.03;;;4.50;;
32964;SDS011;19317;48.226;11.686;2023-03-19T23:52:18;4.63;;;4.23;;
32964;SDS011;19317;48.226;11.686;2023-03-19T23:57:11;4.60;;;4.20;;
